createdAt,value
2018-11-23T00:00:11.597Z,100707.39
2018-11-23T00:02:38.432Z,100707.78
2018-11-23T00:05:05.264Z,100704.77
2018-11-23T00:07:32.111Z,100700.94
2018-11-23T00:09:58.944Z,100703.23
2018-11-23T00:12:25.787Z,100703.78
2018-11-23T00:14:52.643Z,100704.51
2018-11-23T00:17:19.491Z,100704.25
2018-11-23T00:19:46.335Z,100710.04
2018-11-23T00:22:13.167Z,100714.14
2018-11-23T00:24:40.049Z,100711.64
2018-11-23T00:27:06.882Z,100714.70
2018-11-23T00:29:33.767Z,100713.01
2018-11-23T00:32:00.619Z,100714.70
2018-11-23T00:34:27.471Z,100719.04
2018-11-23T00:36:54.325Z,100722.25
2018-11-23T00:39:21.343Z,100718.30
2018-11-23T00:41:48.198Z,100724.39
2018-11-23T00:44:15.039Z,100724.86
2018-11-23T00:46:41.872Z,100730.03
2018-11-23T00:49:08.791Z,100729.69
2018-11-23T00:51:35.631Z,100734.77
2018-11-23T00:54:02.475Z,100732.95
2018-11-23T00:56:29.308Z,100735.94
2018-11-23T00:58:56.184Z,100738.57
2018-11-23T01:01:23.036Z,100737.83
2018-11-23T01:03:49.887Z,100739.98
2018-11-23T01:06:16.735Z,100746.22
2018-11-23T01:08:43.579Z,100744.59
2018-11-23T01:11:10.404Z,100745.49
2018-11-23T01:13:37.254Z,100735.34
2018-11-23T01:16:04.079Z,100735.65
2018-11-23T01:18:30.919Z,100740.24
2018-11-23T01:20:57.763Z,100744.62
2018-11-23T01:23:24.607Z,100742.11
2018-11-23T01:25:51.563Z,100736.11
2018-11-23T01:28:18.418Z,100741.05
2018-11-23T01:30:45.254Z,100737.69
2018-11-23T01:33:12.105Z,100738.29
2018-11-23T01:35:38.931Z,100737.95
2018-11-23T01:38:05.772Z,100738.27
2018-11-23T01:40:32.603Z,100736.23
2018-11-23T01:42:59.499Z,100737.98
2018-11-23T01:45:26.352Z,100738.03
2018-11-23T01:47:53.188Z,100736.75
2018-11-23T01:50:21.437Z,100728.41
2018-11-23T01:52:49.051Z,100734.65
2018-11-23T01:55:16.723Z,100726.15
2018-11-23T01:57:43.859Z,100720.38
2018-11-23T02:00:13.160Z,100712.67
2018-11-23T02:02:40.008Z,100715.43
2018-11-23T02:05:07.366Z,100713.95
2018-11-23T02:07:34.227Z,100710.11
2018-11-23T02:10:01.072Z,100706.81
2018-11-23T02:12:27.923Z,100708.45
2018-11-23T02:14:54.803Z,100699.75
2018-11-23T02:17:23.120Z,100704.96
2018-11-23T02:19:51.080Z,100704.89
2018-11-23T02:22:17.927Z,100702.91
2018-11-23T02:24:44.767Z,100697.41
2018-11-23T02:27:11.618Z,100705.77
2018-11-23T02:29:38.464Z,100702.47
2018-11-23T02:32:05.315Z,100694.09
2018-11-23T02:34:32.153Z,100702.38
2018-11-23T02:36:58.988Z,100704.11
2018-11-23T02:39:25.840Z,100709.05
2018-11-23T02:41:52.680Z,100703.38
2018-11-23T02:44:19.532Z,100705.03
2018-11-23T02:46:46.480Z,100703.09
2018-11-23T02:49:13.309Z,100707.17
2018-11-23T02:51:40.191Z,100711.27
2018-11-23T02:54:07.060Z,100712.10
2018-11-23T02:56:44.024Z,100708.73
2018-11-23T02:59:10.880Z,100705.19
2018-11-23T03:01:37.955Z,100703.03
2018-11-23T03:04:05.497Z,100704.23
2018-11-23T03:06:32.339Z,100699.52
2018-11-23T03:08:59.179Z,100703.88
2018-11-23T03:11:26.024Z,100697.27
2018-11-23T03:13:52.868Z,100700.55
2018-11-23T03:16:19.758Z,100698.88
2018-11-23T03:18:46.588Z,100700.66
2018-11-23T03:21:13.423Z,100701.55
2018-11-23T03:23:40.263Z,100704.13
2018-11-23T03:26:07.107Z,100700.42
2018-11-23T03:28:33.957Z,100705.39
2018-11-23T03:31:00.876Z,100704.69
2018-11-23T03:33:27.679Z,100708.22
2018-11-23T03:35:54.515Z,100703.45
2018-11-23T03:38:21.363Z,100705.34
2018-11-23T03:40:48.202Z,100702.69
2018-11-23T03:43:15.033Z,100697.81
2018-11-23T03:45:41.881Z,100708.31
2018-11-23T03:48:08.719Z,100695.84
2018-11-23T03:50:35.567Z,100691.84
2018-11-23T03:53:02.402Z,100688.05
2018-11-23T03:55:29.251Z,100683.43
2018-11-23T03:57:56.081Z,100688.08
2018-11-23T04:00:23.384Z,100687.09
2018-11-23T04:02:50.603Z,100690.28
2018-11-23T04:05:17.724Z,100698.47
2018-11-23T04:07:44.704Z,100705.79
2018-11-23T04:10:12.696Z,100700.39
2018-11-23T04:12:39.543Z,100695.95
2018-11-23T04:15:06.757Z,100693.66
2018-11-23T04:17:33.608Z,100695.82
2018-11-23T04:20:00.432Z,100693.93
2018-11-23T04:22:27.271Z,100692.27
2018-11-23T04:24:54.124Z,100694.06
2018-11-23T04:27:20.958Z,100693.89
2018-11-23T04:29:47.799Z,100688.41
2018-11-23T04:32:14.648Z,100693.56
2018-11-23T04:34:41.475Z,100696.67
2018-11-23T04:37:08.324Z,100693.36
2018-11-23T04:39:35.220Z,100692.84
2018-11-23T04:42:02.091Z,100705.07
2018-11-23T04:44:28.927Z,100698.78
2018-11-23T04:46:55.775Z,100701.12
2018-11-23T04:49:22.630Z,100700.66
2018-11-23T04:51:49.468Z,100702.47
2018-11-23T04:54:16.303Z,100701.17
2018-11-23T04:56:43.143Z,100694.15
2018-11-23T04:59:09.978Z,100686.35
2018-11-23T05:01:36.825Z,100688.01
2018-11-23T05:04:03.827Z,100686.62
2018-11-23T05:06:30.693Z,100678.95
2018-11-23T05:08:57.537Z,100671.22
2018-11-23T05:11:24.383Z,100672.81
2018-11-23T05:13:51.384Z,100659.07
2018-11-23T05:16:18.305Z,100655.83
2018-11-23T05:18:45.748Z,100658.06
2018-11-23T05:21:12.620Z,100658.06
2018-11-23T05:23:39.455Z,100659.80
2018-11-23T05:26:06.324Z,100656.30
2018-11-23T05:28:33.159Z,100658.00
2018-11-23T05:31:00.058Z,100658.72
2018-11-23T05:33:26.900Z,100660.48
2018-11-23T05:35:53.751Z,100660.95
2018-11-23T05:38:20.584Z,100658.75
2018-11-23T05:40:47.423Z,100653.72
2018-11-23T05:43:14.254Z,100646.38
2018-11-23T05:45:41.088Z,100650.40
2018-11-23T05:48:07.913Z,100650.23
2018-11-23T05:50:34.748Z,100649.64
2018-11-23T05:53:01.592Z,100664.45
2018-11-23T05:55:28.459Z,100668.29
2018-11-23T05:57:55.403Z,100669.61
2018-11-23T06:00:24.515Z,100670.77
2018-11-23T06:02:51.463Z,100669.67
2018-11-23T06:05:18.314Z,100674.03
2018-11-23T06:07:45.156Z,100664.25
2018-11-23T06:10:14.155Z,100660.28
2018-11-23T06:12:41.159Z,100659.66
2018-11-23T06:15:10.087Z,100658.52
2018-11-23T06:17:36.915Z,100666.49
2018-11-23T06:20:05.031Z,100665.66
2018-11-23T06:22:32.002Z,100654.55
2018-11-23T06:24:58.823Z,100665.42
2018-11-23T06:27:25.659Z,100670.97
2018-11-23T06:29:52.487Z,100661.14
2018-11-23T06:32:30.940Z,100665.91
2018-11-23T06:34:57.783Z,100671.98
2018-11-23T06:37:24.612Z,100674.11
2018-11-23T06:39:51.696Z,100675.50
2018-11-23T06:42:18.536Z,100676.89
2018-11-23T06:44:45.362Z,100678.23
2018-11-23T06:47:12.191Z,100676.38
2018-11-23T06:49:39.031Z,100679.09
2018-11-23T06:52:05.859Z,100681.97
2018-11-23T06:54:32.697Z,100681.05
2018-11-23T06:56:59.535Z,100687.07
2018-11-23T06:59:26.358Z,100685.60
2018-11-23T07:01:53.411Z,100688.14
2018-11-23T07:04:20.268Z,100684.41
2018-11-23T07:06:47.175Z,100687.06
2018-11-23T07:09:13.990Z,100696.21
2018-11-23T07:11:40.848Z,100692.62
2018-11-23T07:14:07.691Z,100696.50
2018-11-23T07:16:34.529Z,100699.62
2018-11-23T07:19:01.379Z,100690.83
2018-11-23T07:21:28.233Z,100677.42
2018-11-23T07:23:55.075Z,100683.86
2018-11-23T07:26:21.922Z,100686.23
2018-11-23T07:28:48.759Z,100687.69
2018-11-23T07:31:15.583Z,100688.39
2018-11-23T07:33:42.420Z,100691.98
2018-11-23T07:36:09.248Z,100692.88
2018-11-23T07:38:36.076Z,100687.94
2018-11-23T07:41:14.696Z,100690.12
2018-11-23T07:43:41.560Z,100694.27
2018-11-23T07:46:08.468Z,100682.38
2018-11-23T07:48:35.307Z,100681.96
2018-11-23T07:51:02.143Z,100687.25
2018-11-23T07:53:28.975Z,100693.71
2018-11-23T07:55:55.831Z,100689.36
2018-11-23T07:58:22.687Z,100686.36
2018-11-23T08:00:49.551Z,100682.13
2018-11-23T08:03:16.395Z,100681.77
2018-11-23T08:05:43.230Z,100682.45
2018-11-23T08:08:10.064Z,100685.15
2018-11-23T08:10:36.488Z,100678.23
2018-11-23T08:13:03.343Z,100675.55
2018-11-23T08:15:30.180Z,100671.37
2018-11-23T08:17:57.019Z,100674.95
2018-11-23T08:20:24.628Z,100685.34
2018-11-23T08:22:51.512Z,100680.59
2018-11-23T08:25:19.640Z,100684.06
2018-11-23T08:27:47.255Z,100685.39
2018-11-23T08:30:17.415Z,100677.72
2018-11-23T08:32:44.355Z,100684.48
2018-11-23T08:35:11.302Z,100682.23
2018-11-23T08:37:38.471Z,100684.34
2018-11-23T08:40:10.371Z,100675.22
2018-11-23T08:42:37.212Z,100667.47
2018-11-23T08:45:06.300Z,100668.80
2018-11-23T08:47:33.131Z,100671.58
2018-11-23T08:49:59.991Z,100674.59
2018-11-23T08:52:26.835Z,100677.37
2018-11-23T08:54:53.669Z,100673.64
2018-11-23T08:57:20.527Z,100667.94
2018-11-23T08:59:47.362Z,100659.54
2018-11-23T09:02:14.199Z,100662.70
2018-11-23T09:04:41.020Z,100648.56
2018-11-23T09:07:07.868Z,100647.54
2018-11-23T09:09:34.721Z,100646.06
2018-11-23T09:12:01.544Z,100644.88
2018-11-23T09:14:28.421Z,100640.78
2018-11-23T09:16:55.268Z,100631.17
2018-11-23T09:19:22.112Z,100625.47
2018-11-23T09:21:48.941Z,100621.33
2018-11-23T09:24:15.803Z,100617.42
2018-11-23T09:26:42.639Z,100629.98
2018-11-23T09:29:09.483Z,100631.33
2018-11-23T09:31:36.315Z,100628.64
2018-11-23T09:34:03.168Z,100625.98
2018-11-23T09:36:29.987Z,100615.66
2018-11-23T09:38:56.827Z,100616.88
2018-11-23T09:41:23.655Z,100617.00
2018-11-23T09:43:50.499Z,100614.49
2018-11-23T09:46:17.362Z,100614.31
2018-11-23T09:48:44.175Z,100614.33
2018-11-23T09:51:11.056Z,100607.82
2018-11-23T09:53:37.891Z,100610.11
2018-11-23T09:56:04.739Z,100600.23
2018-11-23T09:58:31.560Z,100597.89
2018-11-23T10:00:58.392Z,100591.91
2018-11-23T10:03:25.252Z,100593.95
2018-11-23T10:05:52.083Z,100596.89
2018-11-23T10:08:18.929Z,100601.57
2018-11-23T10:10:45.771Z,100593.58
2018-11-23T10:13:12.607Z,100588.34
2018-11-23T10:15:39.500Z,100583.48
2018-11-23T10:18:06.364Z,100576.54
2018-11-23T10:20:33.934Z,100577.30
2018-11-23T10:23:00.784Z,100583.83
2018-11-23T10:25:29.768Z,100582.64
2018-11-23T10:27:56.761Z,100575.84
2018-11-23T10:30:24.907Z,100577.03
2018-11-23T10:32:52.927Z,100570.86
2018-11-23T10:35:19.737Z,100566.80
2018-11-23T10:37:47.847Z,100559.81
2018-11-23T10:40:18.088Z,100559.45
2018-11-23T10:42:45.157Z,100554.75
2018-11-23T10:45:14.844Z,100552.48
2018-11-23T10:47:41.701Z,100557.55
2018-11-23T10:50:11.188Z,100549.01
2018-11-23T10:52:38.120Z,100548.48
2018-11-23T10:55:07.039Z,100535.80
2018-11-23T10:57:33.971Z,100524.17
2018-11-23T11:00:00.807Z,100527.80
2018-11-23T11:02:33.310Z,100522.22
2018-11-23T11:05:05.852Z,100516.38
2018-11-23T11:07:32.760Z,100515.98
2018-11-23T11:09:59.595Z,100511.11
2018-11-23T11:12:26.970Z,100508.45
2018-11-23T11:14:53.815Z,100505.52
2018-11-23T11:17:37.755Z,100491.05
2018-11-23T11:20:17.585Z,100486.31
2018-11-23T11:23:15.055Z,100484.42
2018-11-23T11:25:41.982Z,100487.83
2018-11-23T11:28:08.899Z,100491.42
2018-11-23T11:30:35.750Z,100490.19
2018-11-23T11:33:02.615Z,100478.50
2018-11-23T11:35:29.460Z,100476.88
2018-11-23T11:37:56.359Z,100469.30
2018-11-23T11:40:23.199Z,100458.73
2018-11-23T11:42:50.179Z,100456.30
2018-11-23T11:45:18.117Z,100456.31
2018-11-23T11:47:45.474Z,100445.98
2018-11-23T11:50:12.940Z,100441.42
2018-11-23T11:52:40.952Z,100432.89
2018-11-23T11:55:09.883Z,100425.62
2018-11-23T11:57:36.822Z,100426.36
2018-11-23T12:00:03.943Z,100414.16
2018-11-23T12:02:30.791Z,100408.53
2018-11-23T12:04:57.658Z,100412.61
2018-11-23T12:07:24.486Z,100408.94
2018-11-23T12:09:51.397Z,100409.47
2018-11-23T12:12:18.379Z,100405.17
2018-11-23T12:14:45.287Z,100406.08
2018-11-23T12:17:12.187Z,100398.20
2018-11-23T12:19:39.030Z,100405.36
2018-11-23T12:22:05.879Z,100402.70
2018-11-23T12:24:32.716Z,100407.05
2018-11-23T12:26:59.660Z,100391.86
2018-11-23T12:29:26.503Z,100388.54
2018-11-23T12:31:53.444Z,100381.50
2018-11-23T12:34:20.320Z,100385.02
2018-11-23T12:36:47.187Z,100376.45
2018-11-23T12:39:14.025Z,100380.12
2018-11-23T12:41:40.911Z,100379.03
2018-11-23T12:44:07.807Z,100379.85
2018-11-23T12:46:34.631Z,100368.34
2018-11-23T12:49:01.491Z,100376.56
2018-11-23T12:51:28.336Z,100367.41
2018-11-23T12:53:55.183Z,100366.37
2018-11-23T12:56:22.043Z,100357.11
2018-11-23T12:58:48.955Z,100349.47
2018-11-23T13:01:15.794Z,100344.07
2018-11-23T13:03:42.639Z,100351.59
2018-11-23T13:06:09.566Z,100348.42
2018-11-23T13:08:36.377Z,100345.59
2018-11-23T13:11:03.231Z,100352.06
2018-11-23T13:13:30.087Z,100351.12
2018-11-23T13:15:56.939Z,100343.83
2018-11-23T13:18:23.807Z,100341.13
2018-11-23T13:20:50.664Z,100346.41
2018-11-23T13:23:17.527Z,100344.42
2018-11-23T13:25:44.378Z,100342.89
2018-11-23T13:28:11.227Z,100340.55
2018-11-23T13:30:38.051Z,100336.20
2018-11-23T13:33:04.965Z,100337.16
2018-11-23T13:35:31.809Z,100336.44
2018-11-23T13:37:58.656Z,100344.29
2018-11-23T13:40:26.462Z,100340.64
2018-11-23T13:42:54.231Z,100337.36
2018-11-23T13:45:22.363Z,100330.67
2018-11-23T13:47:49.204Z,100329.03
2018-11-23T13:50:18.451Z,100328.92
2018-11-23T13:52:46.147Z,100323.88
2018-11-23T13:55:13.034Z,100330.30
2018-11-23T13:57:39.872Z,100325.37
2018-11-23T14:00:13.908Z,100324.78
2018-11-23T14:02:40.743Z,100324.32
2018-11-23T14:05:09.835Z,100319.64
2018-11-23T14:07:36.676Z,100316.46
2018-11-23T14:10:05.210Z,100322.11
2018-11-23T14:12:32.106Z,100317.27
2018-11-23T14:14:58.944Z,100313.74
2018-11-23T14:17:25.793Z,100313.98
2018-11-23T14:19:52.647Z,100304.94
2018-11-23T14:22:19.487Z,100298.70
2018-11-23T14:24:46.331Z,100305.95
2018-11-23T14:27:13.179Z,100300.67
2018-11-23T14:29:40.024Z,100295.39
2018-11-23T14:32:06.874Z,100287.38
2018-11-23T14:34:33.711Z,100299.48
2018-11-23T14:37:00.559Z,100290.67
2018-11-23T14:39:27.399Z,100298.01
2018-11-23T14:41:54.238Z,100299.70
2018-11-23T14:44:21.080Z,100298.41
2018-11-23T14:46:47.945Z,100293.78
2018-11-23T14:49:14.852Z,100298.36
2018-11-23T14:51:41.739Z,100299.41
2018-11-23T14:54:08.579Z,100296.56
2018-11-23T14:56:35.427Z,100301.41
2018-11-23T14:59:02.327Z,100298.08
2018-11-23T15:01:29.155Z,100301.92
2018-11-23T15:03:55.995Z,100301.95
2018-11-23T15:06:22.823Z,100302.15
2018-11-23T15:08:49.669Z,100303.44
2018-11-23T15:11:16.581Z,100306.74
2018-11-23T15:13:43.427Z,100303.02
2018-11-23T15:16:10.263Z,100307.59
2018-11-23T15:18:37.111Z,100299.92
2018-11-23T15:21:04.360Z,100299.53
2018-11-23T15:23:31.259Z,100296.45
2018-11-23T15:25:58.092Z,100303.11
2018-11-23T15:28:24.927Z,100302.28
2018-11-23T15:30:51.776Z,100303.96
2018-11-23T15:33:18.599Z,100291.87
2018-11-23T15:35:45.607Z,100283.44
2018-11-23T15:38:14.136Z,100273.00
2018-11-23T15:40:41.024Z,100273.27
2018-11-23T15:43:09.370Z,100283.25
2018-11-23T15:45:36.519Z,100275.77
2018-11-23T15:48:03.563Z,100279.58
2018-11-23T15:50:31.851Z,100272.14
2018-11-23T15:52:58.679Z,100273.11
2018-11-23T15:55:27.222Z,100274.96
2018-11-23T15:57:55.367Z,100270.81
2018-11-23T16:00:25.822Z,100280.33
2018-11-23T16:02:53.027Z,100276.00
2018-11-23T16:05:19.977Z,100273.17
2018-11-23T16:07:47.055Z,100274.16
2018-11-23T16:10:19.563Z,100277.97
2018-11-23T16:13:06.826Z,100271.94
2018-11-23T16:15:31.011Z,100272.52
2018-11-23T16:17:58.547Z,100277.19
2018-11-23T16:20:27.742Z,100272.25
2018-11-23T16:22:56.023Z,100269.62
2018-11-23T16:25:22.963Z,100260.23
2018-11-23T16:27:51.303Z,100271.27
2018-11-23T16:30:20.954Z,100266.33
2018-11-23T16:32:49.031Z,100269.78
2018-11-23T16:35:18.482Z,100253.65
2018-11-23T16:37:45.496Z,100270.64
2018-11-23T16:40:13.773Z,100261.61
2018-11-23T16:42:40.690Z,100248.45
2018-11-23T16:45:16.923Z,100261.03
2018-11-23T16:47:44.207Z,100264.42
2018-11-23T16:50:11.486Z,100267.45
2018-11-23T16:52:38.731Z,100255.69
2018-11-23T16:55:07.783Z,100254.34
2018-11-23T16:57:34.011Z,100235.55
2018-11-23T17:00:00.912Z,100256.47
2018-11-23T17:02:27.754Z,100256.81
2018-11-23T17:04:54.589Z,100246.64
2018-11-23T17:07:21.969Z,100248.48
2018-11-23T17:09:48.904Z,100237.84
2018-11-23T17:12:15.857Z,100224.55
2018-11-23T17:14:42.735Z,100221.25
2018-11-23T17:17:09.588Z,100223.36
2018-11-23T17:19:36.420Z,100209.70
2018-11-23T17:22:03.436Z,100213.81
2018-11-23T17:24:30.265Z,100204.56
2018-11-23T17:26:57.199Z,100210.13
2018-11-23T17:29:24.019Z,100205.38
2018-11-23T17:31:50.844Z,100200.88
2018-11-23T17:34:17.671Z,100195.63
2018-11-23T17:36:44.524Z,100196.39
2018-11-23T17:39:11.532Z,100191.22
2018-11-23T17:41:38.419Z,100183.82
2018-11-23T17:44:05.395Z,100180.06
2018-11-23T17:46:32.255Z,100183.36
2018-11-23T17:48:59.123Z,100176.27
2018-11-23T17:51:25.983Z,100175.87
2018-11-23T17:53:52.824Z,100173.19
2018-11-23T17:56:19.745Z,100161.83
2018-11-23T17:58:46.703Z,100155.71
2018-11-23T18:01:13.557Z,100155.66
2018-11-23T18:03:40.439Z,100154.63
2018-11-23T18:06:07.319Z,100148.52
2018-11-23T18:08:38.623Z,100139.73
2018-11-23T18:11:01.100Z,100132.49
2018-11-23T18:13:27.984Z,100134.14
2018-11-23T18:15:54.883Z,100129.72
2018-11-23T18:18:21.725Z,100126.89
2018-11-23T18:20:48.592Z,100123.52
2018-11-23T18:23:15.475Z,100136.81
2018-11-23T18:25:42.359Z,100125.42
2018-11-23T18:28:09.235Z,100106.50
2018-11-23T18:30:36.091Z,100108.30
2018-11-23T18:33:04.525Z,100115.51
2018-11-23T18:35:31.415Z,100128.69
2018-11-23T18:37:58.384Z,100152.67
2018-11-23T18:40:25.239Z,100147.30
2018-11-23T18:42:52.480Z,100128.33
2018-11-23T18:45:19.368Z,100113.17
2018-11-23T18:47:46.221Z,100102.33
2018-11-23T18:50:14.188Z,100105.75
2018-11-23T18:52:41.099Z,100119.14
2018-11-23T18:55:09.011Z,100122.06
2018-11-23T18:57:35.889Z,100129.67
2018-11-23T19:00:02.792Z,100133.22
2018-11-23T19:02:29.731Z,100134.19
2018-11-23T19:04:56.571Z,100137.64
2018-11-23T19:07:23.501Z,100126.02
2018-11-23T19:09:50.323Z,100108.19
2018-11-23T19:12:17.176Z,100104.55
2018-11-23T19:14:44.012Z,100093.08
2018-11-23T19:17:10.884Z,100097.08
2018-11-23T19:19:37.796Z,100094.98
2018-11-23T19:22:04.907Z,100084.84
2018-11-23T19:24:31.787Z,100075.28
2018-11-23T19:26:58.624Z,100074.31
2018-11-23T19:29:25.507Z,100071.28
2018-11-23T19:31:52.427Z,100071.32
2018-11-23T19:34:19.290Z,100064.89
2018-11-23T19:36:46.203Z,100070.75
2018-11-23T19:39:13.067Z,100066.50
2018-11-23T19:41:40.015Z,100069.89
2018-11-23T19:44:06.928Z,100066.72
2018-11-23T19:46:33.884Z,100064.07
2018-11-23T19:49:00.711Z,100058.89
2018-11-23T19:51:27.652Z,100061.03
2018-11-23T19:53:54.559Z,100075.99
2018-11-23T19:56:21.404Z,100075.42
2018-11-23T19:58:48.302Z,100069.63
2018-11-23T20:01:15.139Z,100069.45
2018-11-23T20:03:42.003Z,100056.49
2018-11-23T20:06:08.911Z,100066.23
2018-11-23T20:08:36.299Z,100066.95
2018-11-23T20:11:03.149Z,100064.63
2018-11-23T20:13:30.009Z,100073.20
2018-11-23T20:15:56.893Z,100067.78
2018-11-23T20:18:23.764Z,100059.00
2018-11-23T20:20:50.728Z,100059.83
2018-11-23T20:23:17.732Z,100056.54
2018-11-23T20:25:44.676Z,100051.66
2018-11-23T20:28:11.625Z,100053.97
2018-11-23T20:30:42.590Z,100053.20
2018-11-23T20:33:05.483Z,100047.80
2018-11-23T20:35:32.331Z,100046.14
2018-11-23T20:37:59.295Z,100048.25
2018-11-23T20:40:26.275Z,100041.95
2018-11-23T20:42:53.156Z,100043.38
2018-11-23T20:45:20.046Z,100042.91
2018-11-23T20:47:46.876Z,100049.80
2018-11-23T20:50:14.599Z,100048.16
2018-11-23T20:52:41.456Z,100045.23
2018-11-23T20:55:12.170Z,100037.52
2018-11-23T20:57:39.000Z,100043.30
2018-11-23T21:00:11.251Z,100037.33
2018-11-23T21:02:38.161Z,100032.86
2018-11-23T21:05:06.767Z,100022.45
2018-11-23T21:07:33.617Z,100026.98
2018-11-23T21:10:00.529Z,100023.02
2018-11-23T21:12:27.484Z,100022.51
2018-11-23T21:14:54.363Z,100008.72
2018-11-23T21:17:21.244Z,100007.78
2018-11-23T21:19:48.092Z,100002.90
2018-11-23T21:22:14.915Z,99993.70
2018-11-23T21:24:41.771Z,99999.72
2018-11-23T21:27:08.609Z,99990.88
2018-11-23T21:29:35.468Z,99989.70
2018-11-23T21:32:02.291Z,99977.48
2018-11-23T21:34:29.144Z,99972.42
2018-11-23T21:36:55.976Z,99970.19
2018-11-23T21:39:22.835Z,99964.68
2018-11-23T21:41:49.671Z,99962.98
2018-11-23T21:44:16.520Z,99964.16
2018-11-23T21:46:43.396Z,99957.19
2018-11-23T21:49:10.244Z,99957.44
2018-11-23T21:51:37.083Z,99961.65
2018-11-23T21:54:03.912Z,99952.01
2018-11-23T21:56:30.759Z,99955.36
2018-11-23T21:58:57.595Z,99950.25
2018-11-23T22:01:24.465Z,99946.20
2018-11-23T22:03:51.300Z,99942.39
2018-11-23T22:06:18.136Z,99939.52
2018-11-23T22:08:44.979Z,99936.83
2018-11-23T22:11:11.824Z,99932.91
2018-11-23T22:13:38.719Z,99935.98
2018-11-23T22:16:05.611Z,99931.05
2018-11-23T22:18:32.451Z,99927.02
2018-11-23T22:20:59.300Z,99917.69
2018-11-23T22:23:26.135Z,99910.27
2018-11-23T22:25:52.980Z,99912.36
2018-11-23T22:28:19.818Z,99910.34
2018-11-23T22:30:46.667Z,99910.25
2018-11-23T22:33:13.512Z,99908.77
2018-11-23T22:35:40.355Z,99896.66
2018-11-23T22:38:07.199Z,99897.51
2018-11-23T22:40:34.032Z,99896.52
2018-11-23T22:43:00.891Z,99886.89
2018-11-23T22:45:27.719Z,99885.92
2018-11-23T22:47:54.559Z,99895.13
2018-11-23T22:50:22.214Z,99892.56
2018-11-23T22:52:49.095Z,99898.09
2018-11-23T22:55:16.749Z,99891.81
2018-11-23T22:57:43.593Z,99900.97
2018-11-23T23:00:18.539Z,99903.47
2018-11-23T23:02:45.427Z,99897.38
2018-11-23T23:05:12.288Z,99895.88
2018-11-23T23:07:39.128Z,99893.45
2018-11-23T23:10:06.335Z,99896.09
2018-11-23T23:12:33.181Z,99893.98
2018-11-23T23:15:00.065Z,99892.38
2018-11-23T23:17:26.907Z,99889.92
2018-11-23T23:19:53.755Z,99895.70
2018-11-23T23:22:20.583Z,99899.83
2018-11-23T23:24:47.436Z,99897.48
2018-11-23T23:27:14.314Z,99896.95
2018-11-23T23:29:41.155Z,99896.02
2018-11-23T23:32:08.004Z,99900.05
2018-11-23T23:34:34.827Z,99900.69
2018-11-23T23:37:01.660Z,99897.00
2018-11-23T23:39:28.516Z,99895.77
2018-11-23T23:41:55.355Z,99888.59
2018-11-23T23:44:22.200Z,99887.56
2018-11-23T23:46:49.051Z,99886.27
2018-11-23T23:49:15.891Z,99890.62
2018-11-23T23:51:42.724Z,99888.30
2018-11-23T23:54:09.567Z,99889.31
2018-11-23T23:56:36.391Z,99891.70
2018-11-23T23:59:03.280Z,99896.48
